Time;durP1;ratioP1;P1;durP2;ratioP2;P2;SDS_P1;SDS_P2;PMS_P1;PMS_P2;Temp;Humidity;BMP_temperature;BMP_pressure;BME280_temperature;BME280_humidity;BME280_pressure;Samples;Min_cycle;Max_cycle;Signal;HPM_P1;HPM_P2
2021/08/23 02:46:51;;;;;;;3.03;2.47;;;19.90;99.90;;;;;;5120679;24;20138;-81
2021/08/23 02:49:17;;;;;;;4.05;3.08;;;20.00;99.90;;;;;;4780491;30;20043;-81
2021/08/23 02:51:44;;;;;;;7.25;2.95;;;20.00;99.90;;;;;;4779491;30;20023;-81
2021/08/23 02:54:10;;;;;;;4.45;2.85;;;20.00;99.90;;;;;;4782282;30;20039;-81
2021/08/23 02:56:36;;;;;;;3.20;2.53;;;20.00;99.90;;;;;;4782874;30;20518;-81
2021/08/23 02:59:02;;;;;;;4.72;3.28;;;20.00;99.90;;;;;;4783911;30;20034;-81
2021/08/23 03:01:28;;;;;;;4.55;2.95;;;20.10;99.90;;;;;;4813210;29;20280;-81
2021/08/23 03:03:54;;;;;;;4.05;3.38;;;20.00;99.90;;;;;;4785727;30;20106;-81
2021/08/23 03:06:19;;;;;;;5.35;3.55;;;20.00;99.90;;;;;;4800659;30;20133;-81
2021/08/23 03:08:45;;;;;;;4.80;3.30;;;20.10;99.90;;;;;;4785642;30;20052;-81
2021/08/23 03:11:12;;;;;;;7.75;3.55;;;20.10;99.90;;;;;;4800398;30;20035;-81
2021/08/23 03:13:40;;;;;;;5.60;3.65;;;20.10;99.90;;;;;;4800431;30;20054;-81
2021/08/23 03:16:06;;;;;;;4.85;3.55;;;20.10;99.90;;;;;;4801499;29;20031;-81
2021/08/23 03:18:32;;;;;;;4.93;3.83;;;20.10;99.90;;;;;;4785446;30;20027;-81
2021/08/23 03:20:59;;;;;;;4.30;3.35;;;20.00;99.90;;;;;;4785591;30;20058;-81
2021/08/23 03:23:25;;;;;;;4.37;3.47;;;20.00;99.90;;;;;;4800387;30;20039;-81
2021/08/23 03:25:51;;;;;;;5.35;3.10;;;19.90;99.90;;;;;;4785266;30;20612;-81
2021/08/23 03:28:17;;;;;;;5.97;3.50;;;19.70;99.90;;;;;;4785545;30;20038;-81
2021/08/23 03:30:43;;;;;;;4.15;3.50;;;19.70;99.90;;;;;;4785590;30;20315;-81
2021/08/23 03:33:09;;;;;;;4.82;3.67;;;19.70;99.90;;;;;;4785383;30;20477;-81
2021/08/23 03:35:35;;;;;;;7.70;3.90;;;19.70;99.90;;;;;;4785463;30;20059;-81
2021/08/23 03:38:02;;;;;;;5.30;3.85;;;19.70;99.90;;;;;;4800164;30;20038;-81
2021/08/23 03:40:28;;;;;;;4.97;3.78;;;19.70;99.90;;;;;;4785120;30;20031;-81
2021/08/23 03:42:54;;;;;;;6.33;3.60;;;19.70;99.90;;;;;;4799967;30;20027;-81
2021/08/23 03:45:20;;;;;;;3.97;3.40;;;19.70;99.90;;;;;;4799981;30;20055;-81
2021/08/23 03:47:46;;;;;;;5.68;3.80;;;19.80;99.90;;;;;;4799978;30;20038;-81
2021/08/23 03:50:12;;;;;;;5.18;4.40;;;19.70;99.90;;;;;;4800542;30;20058;-81
2021/08/23 03:52:38;;;;;;;7.53;3.75;;;19.80;99.90;;;;;;4815455;29;20087;-80
2021/08/23 03:55:05;;;;;;;4.38;3.65;;;19.80;99.90;;;;;;4800683;30;20050;-81
2021/08/23 03:57:32;;;;;;;4.32;3.83;;;19.70;99.90;;;;;;4815254;29;20101;-81
2021/08/23 03:59:59;;;;;;;5.18;3.88;;;19.60;99.90;;;;;;4815265;29;20080;-81
2021/08/23 04:02:25;;;;;;;7.13;4.17;;;19.60;99.90;;;;;;4800645;30;20035;-81
2021/08/23 04:04:50;;;;;;;5.47;4.15;;;19.50;99.90;;;;;;4799643;29;20082;-81
2021/08/23 04:07:16;;;;;;;6.97;3.85;;;19.60;99.90;;;;;;4815824;29;20106;-80
2021/08/23 04:09:42;;;;;;;7.10;3.83;;;19.50;99.90;;;;;;4800523;30;20031;-80
2021/08/23 04:12:09;;;;;;;5.25;3.72;;;19.50;99.90;;;;;;4801304;29;20222;-80
2021/08/23 04:14:34;;;;;;;5.85;3.67;;;19.60;99.90;;;;;;4800405;30;20027;-80
2021/08/23 04:17:00;;;;;;;4.50;3.60;;;19.50;99.90;;;;;;4804614;29;20040;-80
2021/08/23 04:19:26;;;;;;;4.55;3.55;;;19.50;99.90;;;;;;4781959;30;20042;-81
2021/08/23 04:21:52;;;;;;;5.30;3.83;;;19.50;99.90;;;;;;4782389;30;20095;-81
2021/08/23 04:24:18;;;;;;;5.35;3.20;;;19.50;99.90;;;;;;4797166;30;20154;-81
2021/08/23 04:26:44;;;;;;;4.13;2.90;;;19.50;99.90;;;;;;4782268;30;20269;-80
2021/08/23 04:29:09;;;;;;;3.95;2.92;;;19.60;99.90;;;;;;4782094;30;20027;-80
2021/08/23 04:31:35;;;;;;;5.20;3.22;;;19.40;99.90;;;;;;4782080;30;20063;-81
2021/08/23 04:34:01;;;;;;;4.90;3.40;;;19.40;99.90;;;;;;4796777;30;20036;-80
2021/08/23 04:36:26;;;;;;;5.07;3.70;;;19.40;99.90;;;;;;4782156;30;20043;-81
2021/08/23 04:38:52;;;;;;;5.57;3.40;;;19.40;99.90;;;;;;4796586;30;20337;-80
2021/08/23 04:41:18;;;;;;;5.07;3.00;;;19.40;99.90;;;;;;4796433;30;20032;-81
2021/08/23 04:43:44;;;;;;;6.55;3.72;;;19.40;99.90;;;;;;4782895;30;20038;-80
2021/08/23 04:46:09;;;;;;;5.50;3.42;;;19.40;99.90;;;;;;4782037;30;20059;-80
2021/08/23 04:48:35;;;;;;;4.78;3.17;;;19.40;99.90;;;;;;4781817;30;20114;-80
2021/08/23 04:51:03;;;;;;;4.97;3.47;;;19.40;99.90;;;;;;4782991;30;20621;-80
2021/08/23 04:53:30;;;;;;;7.40;3.70;;;19.40;99.90;;;;;;4794955;29;20035;-81
2021/08/23 04:55:56;;;;;;;7.80;3.83;;;19.40;99.90;;;;;;4807178;29;20100;-80
2021/08/23 04:58:22;;;;;;;4.72;3.40;;;19.40;99.90;;;;;;4817181;29;20587;-80
2021/08/23 05:00:49;;;;;;;6.68;3.38;;;19.50;99.90;;;;;;4814892;29;20315;-81
2021/08/23 05:03:15;;;;;;;6.85;3.22;;;19.50;99.90;;;;;;4802566;29;20038;-80
2021/08/23 05:05:41;;;;;;;4.20;3.10;;;19.50;99.90;;;;;;4788277;29;20218;-80
2021/08/23 05:08:07;;;;;;;4.63;2.87;;;19.40;99.90;;;;;;4799277;30;20039;-80
2021/08/23 05:10:33;;;;;;;5.47;2.43;;;19.30;99.90;;;;;;4808225;29;20332;-80
2021/08/23 05:13:00;;;;;;;9.13;2.70;;;19.20;99.90;;;;;;4801873;29;20345;-80
2021/08/23 05:15:26;;;;;;;4.07;3.20;;;19.20;99.90;;;;;;4812175;29;20045;-80
2021/08/23 05:17:52;;;;;;;3.67;2.80;;;19.20;99.90;;;;;;4801610;29;20043;-80
2021/08/23 05:20:19;;;;;;;7.38;3.28;;;19.10;99.90;;;;;;4798615;30;20110;-80
2021/08/23 05:22:45;;;;;;;5.97;3.40;;;19.10;99.90;;;;;;4798522;30;20456;-81
2021/08/23 05:25:11;;;;;;;5.28;3.33;;;19.10;99.90;;;;;;4783483;30;20043;-81
2021/08/23 05:27:37;;;;;;;4.70;3.47;;;19.20;99.90;;;;;;4783732;30;20034;-81
2021/08/23 05:30:04;;;;;;;5.65;3.58;;;19.20;99.90;;;;;;4798586;30;20123;-81
2021/08/23 05:32:31;;;;;;;3.53;2.92;;;19.20;99.90;;;;;;4783377;30;20027;-81
2021/08/23 05:34:57;;;;;;;8.00;3.35;;;19.20;99.90;;;;;;4798758;30;20036;-81
2021/08/23 05:37:23;;;;;;;3.90;2.90;;;19.20;99.90;;;;;;4798647;30;20046;-81
2021/08/23 05:39:49;;;;;;;5.25;3.28;;;19.20;99.90;;;;;;4783322;30;20281;-80
2021/08/23 05:42:15;;;;;;;3.67;2.70;;;19.30;99.90;;;;;;4799934;30;20372;-80
2021/08/23 05:44:41;;;;;;;4.85;3.15;;;19.30;99.90;;;;;;4774875;30;20251;-80
2021/08/23 05:47:07;;;;;;;3.83;3.00;;;19.40;99.90;;;;;;4797875;29;20043;-80
2021/08/23 05:49:34;;;;;;;4.22;3.08;;;19.40;99.90;;;;;;4797610;30;20061;-80
2021/08/23 05:52:00;;;;;;;3.95;2.67;;;19.40;99.90;;;;;;4797811;30;20177;-80
2021/08/23 05:54:27;;;;;;;3.47;2.95;;;19.40;99.90;;;;;;4797907;30;20027;-80
2021/08/23 05:56:53;;;;;;;6.50;3.00;;;19.50;99.90;;;;;;4797980;30;20050;-79
2021/08/23 05:59:19;;;;;;;3.67;2.55;;;19.50;99.90;;;;;;4783052;30;20188;-80
2021/08/23 06:01:45;;;;;;;7.47;2.55;;;19.50;99.90;;;;;;4783012;30;20047;-80
2021/08/23 06:04:11;;;;;;;3.35;2.67;;;19.50;99.90;;;;;;4797897;30;20034;-80
2021/08/23 06:06:38;;;;;;;;;;;19.50;99.90;;;;;;4798128;30;20054;-78
2021/08/23 06:09:04;;;;;;;6.30;3.17;;;19.50;99.90;;;;;;4797512;30;19909;-80
2021/08/23 06:11:30;;;;;;;3.63;2.15;;;19.50;99.90;;;;;;4782792;30;20045;-79
2021/08/23 06:13:58;;;;;;;3.22;2.35;;;19.50;99.90;;;;;;4781984;30;20089;-79
2021/08/23 06:16:23;;;;;;;6.80;2.90;;;19.60;99.90;;;;;;4782754;30;20035;-79
2021/08/23 06:18:49;;;;;;;4.15;2.40;;;19.60;99.90;;;;;;4812258;29;20086;-79
2021/08/23 06:21:15;;;;;;;3.17;2.38;;;19.70;99.90;;;;;;4797280;30;20050;-80
2021/08/23 06:23:40;;;;;;;3.95;2.35;;;19.70;99.90;;;;;;4797250;30;20035;-79
2021/08/23 06:26:06;;;;;;;3.67;2.53;;;19.70;99.90;;;;;;4782500;30;20053;-79
2021/08/23 06:28:32;;;;;;;2.90;2.25;;;19.80;99.90;;;;;;4781755;30;20223;-79
2021/08/23 06:30:58;;;;;;;3.15;2.55;;;19.80;99.90;;;;;;4782249;30;20042;-79
2021/08/23 06:33:24;;;;;;;4.87;2.80;;;19.80;99.90;;;;;;4782705;30;20031;-79
2021/08/23 06:35:50;;;;;;;3.92;2.00;;;19.90;99.90;;;;;;4797563;30;20039;-79
2021/08/23 06:38:15;;;;;;;3.17;1.88;;;19.90;99.70;;;;;;4797254;30;20035;-79
2021/08/23 06:40:42;;;;;;;5.57;2.20;;;20.00;99.90;;;;;;4797161;30;20311;-79
2021/08/23 06:43:07;;;;;;;4.55;2.53;;;20.10;99.90;;;;;;4782653;30;20046;-79
2021/08/23 06:45:33;;;;;;;5.68;2.40;;;20.20;99.50;;;;;;4796909;29;20027;-80
2021/08/23 06:47:59;;;;;;;8.02;2.58;;;20.20;99.80;;;;;;4794191;30;20032;-79
2021/08/23 06:50:25;;;;;;;2.70;2.27;;;20.40;99.70;;;;;;4779198;30;20262;-79
2021/08/23 06:52:51;;;;;;;4.85;2.75;;;20.30;98.50;;;;;;4779238;30;20035;-80
2021/08/23 06:55:17;;;;;;;4.25;2.30;;;20.40;98.40;;;;;;4779174;30;20028;-80
2021/08/23 06:57:42;;;;;;;4.28;2.30;;;20.40;98.90;;;;;;4779286;30;20051;-80
2021/08/23 07:00:09;;;;;;;4.47;2.08;;;20.40;98.80;;;;;;4793526;30;20061;-80
2021/08/23 07:02:34;;;;;;;4.53;2.60;;;20.40;97.70;;;;;;4780202;30;20050;-80
2021/08/23 07:05:00;;;;;;;5.10;2.10;;;20.50;98.10;;;;;;4779131;30;20277;-80
2021/08/23 07:07:26;;;;;;;4.03;2.25;;;20.60;97.90;;;;;;4779256;30;20032;-80
2021/08/23 07:09:52;;;;;;;7.32;2.88;;;20.60;97.40;;;;;;4779117;30;20231;-80
2021/08/23 07:12:17;;;;;;;6.65;2.35;;;20.60;97.20;;;;;;4779138;30;20073;-80
2021/08/23 07:14:43;;;;;;;4.68;2.45;;;20.50;96.50;;;;;;4779001;30;20204;-80
2021/08/23 07:17:09;;;;;;;3.35;2.45;;;20.50;97.30;;;;;;4790437;29;20031;-80
2021/08/23 07:19:34;;;;;;;5.05;2.70;;;20.40;97.00;;;;;;4782008;30;20038;-80
2021/08/23 07:22:01;;;;;;;6.45;2.22;;;20.40;96.50;;;;;;4767424;30;20065;-80
2021/08/23 07:24:26;;;;;;;4.83;2.13;;;20.50;96.80;;;;;;4796848;30;20027;-80
2021/08/23 07:26:52;;;;;;;6.90;2.35;;;20.70;96.70;;;;;;4796877;29;20094;-80
2021/08/23 07:29:19;;;;;;;5.93;2.10;;;20.90;96.50;;;;;;4796781;30;20038;-80
2021/08/23 07:31:45;;;;;;;3.67;2.53;;;20.90;95.80;;;;;;4811262;29;20082;-80
2021/08/23 07:34:11;;;;;;;3.87;2.70;;;21.10;95.70;;;;;;4796774;30;20384;-80
2021/08/23 07:36:37;;;;;;;3.63;2.33;;;21.20;94.80;;;;;;4777531;30;20040;-80
2021/08/23 07:39:03;;;;;;;5.85;2.38;;;21.20;95.40;;;;;;4795462;29;20024;-80
2021/08/23 07:41:29;;;;;;;2.85;2.20;;;21.20;93.80;;;;;;4781647;30;20032;-80
2021/08/23 07:43:55;;;;;;;3.83;2.35;;;21.20;94.00;;;;;;4781790;30;20331;-80
2021/08/23 07:46:21;;;;;;;3.63;2.22;;;21.20;94.20;;;;;;4781518;30;20060;-81
2021/08/23 07:48:47;;;;;;;4.10;2.10;;;21.30;93.70;;;;;;4782107;30;20384;-81
2021/08/23 07:51:13;;;;;;;6.78;2.42;;;21.50;93.10;;;;;;4797102;30;20059;-81
2021/08/23 07:53:40;;;;;;;7.28;2.28;;;21.70;92.90;;;;;;4797026;30;20095;-81
2021/08/23 07:56:06;;;;;;;3.90;2.23;;;21.80;92.50;;;;;;4799989;30;20038;-81
2021/08/23 07:58:32;;;;;;;7.85;2.67;;;22.00;93.50;;;;;;4800078;30;20493;-81
2021/08/23 08:00:58;;;;;;;6.87;1.93;;;22.20;92.60;;;;;;4800010;30;20104;-81
2021/08/23 08:03:24;;;;;;;3.15;2.13;;;22.30;92.30;;;;;;4800301;29;20596;-81
2021/08/23 08:05:49;;;;;;;2.33;1.88;;;22.20;91.00;;;;;;4799742;29;20069;-81
2021/08/23 08:08:16;;;;;;;7.05;2.17;;;22.20;90.40;;;;;;4799677;30;20319;-81
2021/08/23 08:10:42;;;;;;;5.55;1.95;;;22.20;90.00;;;;;;4784965;30;20157;-81
2021/08/23 08:13:08;;;;;;;4.53;2.63;;;22.30;89.80;;;;;;4799890;29;20043;-81
2021/08/23 08:15:35;;;;;;;3.37;2.27;;;22.60;90.80;;;;;;4799553;30;20329;-81
2021/08/23 08:18:01;;;;;;;3.50;2.13;;;22.80;89.80;;;;;;4799789;30;20307;-80
2021/08/23 08:20:26;;;;;;;5.70;2.30;;;22.70;87.00;;;;;;4814473;29;20063;-81
2021/08/23 08:22:52;;;;;;;5.25;2.60;;;22.60;86.00;;;;;;4784503;30;20098;-81
2021/08/23 08:25:18;;;;;;;6.75;2.65;;;22.30;87.50;;;;;;4799558;30;20023;-81
2021/08/23 08:27:44;;;;;;;7.47;3.03;;;22.10;87.50;;;;;;4784613;30;20041;-81
2021/08/23 08:30:14;;;;;;;6.63;2.38;;;22.00;89.30;;;;;;4796329;30;20087;-81
2021/08/23 08:32:40;;;;;;;7.85;3.15;;;22.10;89.70;;;;;;4799383;30;20047;-81
2021/08/23 08:35:06;;;;;;;3.35;2.30;;;22.20;87.60;;;;;;4799481;30;20036;-81
2021/08/23 08:37:32;;;;;;;7.30;2.23;;;22.20;87.50;;;;;;4798136;29;20027;-80
2021/08/23 08:39:58;;;;;;;4.15;2.80;;;22.10;88.30;;;;;;4799354;29;20034;-80
2021/08/23 08:42:23;;;;;;;2.63;1.92;;;22.30;86.30;;;;;;4799072;29;20023;-80
2021/08/23 08:44:50;;;;;;;4.32;2.58;;;22.30;87.40;;;;;;4780516;30;20141;-81
2021/08/23 08:47:19;;;;;;;4.55;3.03;;;22.20;85.60;;;;;;4782802;29;20174;-81
2021/08/23 08:49:46;;;;;;;6.53;3.17;;;22.10;86.70;;;;;;4766138;30;20223;-81
2021/08/23 08:52:13;;;;;;;5.35;2.85;;;22.20;87.00;;;;;;4766017;30;20035;-80
2021/08/23 08:54:40;;;;;;;3.03;2.42;;;22.40;86.40;;;;;;4796201;30;20039;-80
2021/08/23 08:57:07;;;;;;;5.55;2.60;;;22.80;86.50;;;;;;4766449;30;20046;-80
2021/08/23 08:59:36;;;;;;;5.13;2.42;;;23.20;83.60;;;;;;4781522;30;20369;-80
2021/08/23 09:02:03;;;;;;;3.78;2.55;;;23.50;83.60;;;;;;4778259;30;20036;-80
2021/08/23 09:04:35;;;;;;;5.72;2.50;;;23.90;79.90;;;;;;4781071;30;20048;-80
2021/08/23 09:07:03;;;;;;;5.57;2.53;;;24.20;80.70;;;;;;4798058;29;20168;-80
2021/08/23 09:09:30;;;;;;;3.38;2.47;;;24.20;77.10;;;;;;4784120;30;20027;-80
2021/08/23 09:12:06;;;;;;;;;;;24.20;77.70;;;;;;4784206;30;20035;-80
2021/08/23 09:14:36;;;;;;;7.20;3.03;;;24.30;79.50;;;;;;4799013;30;19921;-80
2021/08/23 09:17:10;;;;;;;4.10;2.88;;;24.40;77.50;;;;;;4788293;30;20043;-80
2021/08/23 09:19:40;;;;;;;5.18;2.55;;;24.50;78.40;;;;;;4780762;30;20043;-80
2021/08/23 09:22:18;;;;;;;18.25;11.73;;;24.50;75.30;;;;;;4784354;29;20069;-78
2021/08/23 09:24:45;;;;;;;10.00;2.72;;;24.30;77.00;;;;;;4780496;30;20115;-79
2021/08/23 09:27:13;;;;;;;7.28;2.90;;;24.40;79.90;;;;;;4785887;29;20049;-79
2021/08/23 09:29:55;;;;;;;7.18;2.60;;;24.70;77.30;;;;;;4811513;29;20031;-78
2021/08/23 09:32:32;;;;;;;6.13;3.03;;;24.80;74.60;;;;;;4800496;29;20076;-77
2021/08/23 09:34:58;;;;;;;;;;;24.70;76.80;;;;;;4806595;29;20034;-77
2021/08/23 09:37:30;;;;;;;4.35;2.92;;;25.10;74.60;;;;;;4806786;29;19932;-77
2021/08/23 09:39:56;;;;;;;4.43;2.70;;;25.50;76.60;;;;;;4809573;29;20035;-77
2021/08/23 09:42:25;;;;;;;3.30;2.42;;;26.00;75.30;;;;;;4809951;29;20022;-77
2021/08/23 09:44:53;;;;;;;6.28;2.90;;;26.20;75.70;;;;;;4812322;29;20042;-77
2021/08/23 09:47:29;;;;;;;8.30;2.88;;;26.20;72.80;;;;;;4805427;29;20108;-77
2021/08/23 09:49:56;;;;;;;6.75;2.65;;;26.10;70.70;;;;;;4803114;29;20088;-77
2021/08/23 09:52:34;;;;;;;4.03;2.83;;;25.90;71.60;;;;;;4816266;29;20031;-77
2021/08/23 09:55:06;;;;;;;6.57;3.05;;;25.70;69.90;;;;;;4816548;29;20294;-77
2021/08/23 09:57:34;;;;;;;9.55;3.58;;;25.40;69.80;;;;;;4790360;29;20055;-77
2021/08/23 10:00:00;;;;;;;3.97;2.60;;;25.20;71.30;;;;;;4809473;29;20030;-77
2021/08/23 10:02:27;;;;;;;3.50;3.03;;;25.40;73.00;;;;;;4799592;29;20030;-77
2021/08/23 10:04:54;;;;;;;4.03;2.88;;;25.20;69.30;;;;;;4815293;29;20037;-77
2021/08/23 10:07:21;;;;;;;6.93;3.03;;;25.00;70.60;;;;;;4788890;30;20031;-77
2021/08/23 10:09:48;;;;;;;5.72;3.08;;;25.20;70.60;;;;;;4797078;30;20027;-77
2021/08/23 10:12:14;;;;;;;4.43;3.15;;;25.50;71.80;;;;;;4798006;29;20031;-77
2021/08/23 10:14:42;;;;;;;4.70;3.30;;;25.70;67.30;;;;;;4797311;30;20038;-77
2021/08/23 10:17:09;;;;;;;6.28;3.03;;;25.30;68.20;;;;;;4798222;29;20035;-77
2021/08/23 10:19:39;;;;;;;5.82;3.13;;;25.20;69.50;;;;;;4798452;30;20118;-77
2021/08/23 10:22:06;;;;;;;4.03;3.35;;;25.10;69.80;;;;;;4796761;30;20198;-77
2021/08/23 10:24:32;;;;;;;6.10;3.10;;;25.20;70.50;;;;;;4782440;30;20234;-77
2021/08/23 10:26:59;;;;;;;6.45;4.32;;;25.20;68.20;;;;;;4797167;30;20055;-77
2021/08/23 10:29:35;;;;;;;4.45;2.95;;;25.40;71.80;;;;;;4782054;30;20035;-77
2021/08/23 10:32:10;;;;;;;4.38;3.20;;;25.40;67.60;;;;;;4797024;30;20114;-77
2021/08/23 10:34:38;;;;;;;6.75;3.40;;;25.40;68.10;;;;;;4797048;30;20042;-78
2021/08/23 10:37:15;;;;;;;5.82;3.47;;;25.50;67.60;;;;;;4797101;30;20153;-77
2021/08/23 10:39:41;;;;;;;5.00;3.95;;;25.30;67.30;;;;;;4797222;30;20083;-78
2021/08/23 10:42:12;;;;;;;6.57;3.30;;;25.20;68.50;;;;;;4797040;30;20055;-77
2021/08/23 10:44:38;;;;;;;6.15;3.90;;;25.20;68.80;;;;;;4797384;30;20027;-77
2021/08/23 10:47:09;;;;;;;9.25;3.63;;;25.10;67.80;;;;;;4796881;29;20059;-78
2021/08/23 10:49:39;;;;;;;5.10;3.38;;;24.90;67.40;;;;;;4797283;29;20094;-77
2021/08/23 10:52:05;;;;;;;6.07;4.03;;;25.10;68.20;;;;;;4797372;30;20047;-78
2021/08/23 10:54:41;;;;;;;5.30;3.40;;;25.00;66.80;;;;;;4798389;29;20035;-78
2021/08/23 10:57:12;;;;;;;4.53;3.05;;;24.90;67.50;;;;;;4812105;29;20042;-78
2021/08/23 10:59:40;;;;;;;3.95;2.97;;;24.80;68.10;;;;;;4797269;30;20039;-78
2021/08/23 11:02:06;;;;;;;4.55;3.22;;;24.80;68.60;;;;;;4797015;30;20046;-78
2021/08/23 11:04:39;;;;;;;4.40;3.35;;;25.10;69.90;;;;;;4796733;30;20069;-78
2021/08/23 11:07:10;;;;;;;4.35;2.95;;;25.40;67.40;;;;;;4812182;29;20027;-78
2021/08/23 11:09:42;;;;;;;8.85;3.08;;;25.40;65.10;;;;;;4796894;30;20035;-77
2021/08/23 11:12:12;;;;;;;7.18;4.28;;;25.50;65.50;;;;;;4796994;30;20094;-77
2021/08/23 11:14:47;;;;;;;5.72;2.83;;;25.40;66.00;;;;;;4814238;29;20373;-77
2021/08/23 11:17:23;;;;;;;4.30;3.30;;;25.40;65.70;;;;;;4801340;29;20027;-77
2021/08/23 11:19:50;;;;;;;6.07;3.10;;;25.20;64.30;;;;;;4800004;30;20103;-77
2021/08/23 11:22:17;;;;;;;9.30;3.78;;;25.20;66.50;;;;;;4800010;30;20035;-77
2021/08/23 11:24:43;;;;;;;3.92;3.15;;;25.30;66.20;;;;;;4785441;30;20432;-77
2021/08/23 11:27:09;;;;;;;4.45;3.33;;;25.40;66.70;;;;;;4801154;29;20027;-77
2021/08/23 11:29:38;;;;;;;5.25;3.00;;;25.60;65.00;;;;;;4815103;29;20100;-77
2021/08/23 11:32:08;;;;;;;7.75;3.47;;;25.60;65.30;;;;;;4799886;30;20034;-77
2021/08/23 11:34:36;;;;;;;5.72;3.05;;;25.70;65.00;;;;;;4784922;30;20043;-77
2021/08/23 11:37:05;;;;;;;3.58;2.45;;;25.80;63.70;;;;;;4799974;30;20031;-77
2021/08/23 11:39:35;;;;;;;3.13;2.50;;;25.70;63.00;;;;;;4800890;29;20279;-77
2021/08/23 11:42:06;;;;;;;5.78;3.22;;;25.80;64.80;;;;;;4799409;30;20088;-77
2021/08/23 11:44:34;;;;;;;4.10;2.58;;;26.00;63.20;;;;;;4799816;30;20042;-77
2021/08/23 11:47:06;;;;;;;3.47;2.70;;;26.00;61.50;;;;;;4796534;29;20061;-77
2021/08/23 11:49:35;;;;;;;5.32;2.40;;;26.00;61.20;;;;;;4781764;30;20043;-77
2021/08/23 11:52:31;;;;;;;3.70;2.25;;;26.00;62.00;;;;;;4782046;30;20038;-77
2021/08/23 11:54:57;;;;;;;3.50;2.78;;;26.20;61.50;;;;;;4716454;30;20347;-77
2021/08/23 11:57:27;;;;;;;3.75;2.30;;;26.20;60.70;;;;;;4745667;30;20060;-77
2021/08/23 11:59:58;;;;;;;3.72;2.47;;;26.10;58.90;;;;;;4745574;30;20072;-77
2021/08/23 12:02:32;;;;;;;3.60;2.65;;;26.00;59.60;;;;;;4748068;30;20028;-77
2021/08/23 12:05:14;;;;;;;3.15;1.90;;;26.10;61.20;;;;;;4733321;30;20044;-77
2021/08/23 12:07:48;;;;;;;5.70;2.47;;;26.10;58.90;;;;;;4745383;30;20035;-77
2021/08/23 12:10:28;;;;;;;2.67;2.00;;;26.10;60.10;;;;;;4716173;30;20036;-77
2021/08/23 12:13:16;;;;;;;9.27;3.38;;;26.10;60.10;;;;;;4718589;30;20339;-77
2021/08/23 12:16:01;;;;;;;3.20;2.25;;;26.10;59.30;;;;;;4742734;30;20103;-77
2021/08/23 12:18:39;;;;;;;4.13;2.20;;;26.30;58.60;;;;;;4732539;30;20446;-77
2021/08/23 12:21:07;;;;;;;3.30;1.83;;;26.50;57.90;;;;;;4754168;30;20036;-77
2021/08/23 12:23:51;;;;;;;3.67;2.10;;;26.70;56.80;;;;;;4730021;30;20359;-77
2021/08/23 12:26:56;;;;;;;3.83;2.22;;;26.80;57.80;;;;;;4714571;30;20028;-77
2021/08/23 12:29:29;;;;;;;4.67;2.30;;;26.80;58.20;;;;;;4644172;30;20288;-77
2021/08/23 12:32:03;;;;;;;5.13;2.10;;;26.80;56.70;;;;;;4682566;30;20280;-76
2021/08/23 12:34:31;;;;;;;3.72;1.83;;;26.90;54.50;;;;;;4680788;30;20284;-76
2021/08/23 12:37:02;;;;;;;2.67;1.67;;;26.90;56.30;;;;;;4695064;30;20033;-77
2021/08/23 12:39:29;;;;;;;3.53;1.70;;;27.10;56.90;;;;;;4709468;30;20049;-76
2021/08/23 12:41:58;;;;;;;4.35;2.65;;;27.30;55.50;;;;;;4709406;30;20324;-76
2021/08/23 12:44:25;;;;;;;2.92;1.55;;;27.60;54.40;;;;;;4695092;30;20045;-77
2021/08/23 12:46:50;;;;;;;4.05;1.90;;;27.70;54.10;;;;;;4717900;30;20117;-77
2021/08/23 12:49:18;;;;;;;5.00;1.77;;;27.90;55.90;;;;;;4711892;30;20256;-77
2021/08/23 12:51:45;;;;;;;2.15;1.60;;;28.00;53.60;;;;;;4697480;30;20037;-77
2021/08/23 12:54:11;;;;;;;4.35;1.70;;;27.90;52.40;;;;;;4726935;30;20141;-77
2021/08/23 12:56:38;;;;;;;2.67;1.70;;;27.90;54.10;;;;;;4726457;30;20104;-76
2021/08/23 12:59:05;;;;;;;2.10;1.48;;;27.90;53.40;;;;;;4711959;30;20181;-76
2021/08/23 13:01:34;;;;;;;;;;;27.60;54.10;;;;;;4712235;30;20041;-77
2021/08/23 13:04:00;;;;;;;5.25;2.15;;;27.20;54.80;;;;;;4726626;30;20020;-79
2021/08/23 13:06:27;;;;;;;3.10;2.13;;;27.10;55.60;;;;;;4778089;30;20087;-77
2021/08/23 13:08:53;;;;;;;3.67;2.27;;;26.90;56.30;;;;;;4812673;29;20365;-77
2021/08/23 13:11:19;;;;;;;3.95;1.80;;;26.80;57.20;;;;;;4812636;29;20039;-77
2021/08/23 13:13:45;;;;;;;8.00;1.75;;;26.40;56.00;;;;;;4782928;30;20218;-76
2021/08/23 13:16:11;;;;;;;4.73;1.93;;;26.30;57.30;;;;;;4793658;30;20100;-78
2021/08/23 13:18:38;;;;;;;3.47;1.43;;;26.50;58.70;;;;;;4780169;30;20032;-77
2021/08/23 13:21:04;;;;;;;4.03;1.95;;;26.70;58.10;;;;;;4779506;30;20577;-77
2021/08/23 13:23:30;;;;;;;6.25;2.10;;;26.70;57.30;;;;;;4779511;30;20036;-76
2021/08/23 13:25:56;;;;;;;3.83;2.30;;;26.50;59.10;;;;;;4815441;29;20066;-76
2021/08/23 13:28:22;;;;;;;3.87;2.13;;;26.40;60.10;;;;;;4804283;29;20027;-76
2021/08/23 13:30:48;;;;;;;5.93;1.90;;;26.30;60.60;;;;;;4779164;30;20093;-77
2021/08/23 13:33:14;;;;;;;3.55;2.00;;;26.20;59.70;;;;;;4809078;29;20018;-78
2021/08/23 13:35:43;;;;;;;3.50;2.38;;;26.10;60.50;;;;;;4815760;29;20039;-78
2021/08/23 13:38:10;;;;;;;5.30;2.33;;;26.10;60.90;;;;;;4807130;29;20035;-78
2021/08/23 13:40:43;;;;;;;4.28;2.22;;;26.20;61.30;;;;;;4799342;29;20042;-78
2021/08/23 13:43:12;;;;;;;5.05;2.08;;;26.40;60.30;;;;;;4794163;29;20035;-78
2021/08/23 13:45:38;;;;;;;2.72;1.80;;;26.60;60.40;;;;;;4799171;29;20438;-78
2021/08/23 13:48:08;;;;;;;4.80;1.90;;;26.80;59.30;;;;;;4805480;29;20046;-78
2021/08/23 13:50:34;;;;;;;8.70;2.08;;;26.80;58.70;;;;;;4798220;29;20035;-78
2021/08/23 13:53:00;;;;;;;3.70;1.90;;;26.90;58.20;;;;;;4799531;29;20027;-78
2021/08/23 13:55:26;;;;;;;5.68;2.17;;;27.00;58.10;;;;;;4813330;29;20038;-78
2021/08/23 13:57:52;;;;;;;3.43;2.20;;;27.20;57.90;;;;;;4809429;29;20117;-78
2021/08/23 14:00:18;;;;;;;2.93;1.70;;;27.20;57.70;;;;;;4804421;29;20283;-78
2021/08/23 14:02:44;;;;;;;4.00;1.73;;;27.40;56.40;;;;;;4810807;29;20034;-78
2021/08/23 14:05:10;;;;;;;3.40;1.75;;;27.40;55.60;;;;;;4809830;29;20068;-78
2021/08/23 14:07:36;;;;;;;2.70;1.60;;;27.20;55.90;;;;;;4815058;29;20042;-78
2021/08/23 14:10:04;;;;;;;3.38;1.88;;;27.40;55.90;;;;;;4784837;30;20023;-78
2021/08/23 14:12:30;;;;;;;5.65;1.75;;;27.20;54.60;;;;;;4811928;29;20043;-78
2021/08/23 14:14:56;;;;;;;3.47;1.60;;;27.00;54.50;;;;;;4799052;29;20181;-78
2021/08/23 14:17:22;;;;;;;4.80;1.38;;;26.90;55.70;;;;;;4799540;29;20041;-78
2021/08/23 14:19:47;;;;;;;2.65;1.50;;;26.70;55.90;;;;;;4798818;29;20098;-78
2021/08/23 14:22:13;;;;;;;5.60;1.85;;;26.60;57.20;;;;;;4780841;30;20041;-78
2021/08/23 14:24:39;;;;;;;7.07;2.20;;;26.50;56.40;;;;;;4817016;29;20053;-78
2021/08/23 14:27:05;;;;;;;3.78;1.75;;;26.50;57.30;;;;;;4785877;30;20539;-78
2021/08/23 14:29:32;;;;;;;4.35;1.70;;;26.60;56.20;;;;;;4781985;29;20032;-78
2021/08/23 14:31:59;;;;;;;2.95;1.52;;;26.60;56.20;;;;;;4799756;29;20098;-79
2021/08/23 14:34:25;;;;;;;6.47;1.40;;;26.40;57.20;;;;;;4799788;29;20031;-78
2021/08/23 14:36:51;;;;;;;4.35;1.60;;;26.40;56.90;;;;;;4815804;29;20034;-78
2021/08/23 14:39:17;;;;;;;2.20;1.70;;;26.20;56.50;;;;;;4776619;29;20323;-79
2021/08/23 14:41:43;;;;;;;1.73;1.27;;;26.00;57.30;;;;;;4809931;29;20039;-78
2021/08/23 14:44:09;;;;;;;3.90;1.85;;;25.90;58.10;;;;;;4807235;29;20032;-78
2021/08/23 14:46:34;;;;;;;2.15;1.25;;;25.90;58.10;;;;;;4803633;29;20070;-78
2021/08/23 14:49:04;;;;;;;2.15;1.20;;;26.00;58.10;;;;;;4795212;29;20043;-78
2021/08/23 14:51:31;;;;;;;2.60;1.50;;;26.20;59.10;;;;;;4782588;30;20050;-78
2021/08/23 14:53:57;;;;;;;4.55;1.33;;;26.20;56.90;;;;;;4791321;30;20039;-78
2021/08/23 14:56:23;;;;;;;3.00;2.20;;;26.20;57.90;;;;;;4797263;30;20039;-78
2021/08/23 14:58:54;;;;;;;4.20;1.45;;;26.10;57.70;;;;;;4800242;30;20023;-78
2021/08/23 15:01:20;;;;;;;5.28;1.40;;;26.10;57.30;;;;;;4813729;29;20051;-78
2021/08/23 15:03:46;;;;;;;1.93;1.03;;;26.00;57.40;;;;;;4813667;29;20095;-78
2021/08/23 15:06:12;;;;;;;2.63;1.30;;;26.00;57.50;;;;;;4800183;30;20027;-78
2021/08/23 15:08:38;;;;;;;1.90;1.27;;;26.10;57.90;;;;;;4800244;30;20054;-78
2021/08/23 15:11:03;;;;;;;4.05;1.40;;;26.20;58.30;;;;;;4800165;30;20031;-78
2021/08/23 15:13:29;;;;;;;1.80;1.13;;;26.10;56.70;;;;;;4800262;30;20071;-79
2021/08/23 15:15:55;;;;;;;2.30;1.60;;;26.00;58.10;;;;;;4800451;30;20054;-79
2021/08/23 15:18:21;;;;;;;2.80;1.48;;;26.20;57.80;;;;;;4814905;29;20322;-78
2021/08/23 15:20:48;;;;;;;3.35;1.42;;;26.10;55.90;;;;;;4798849;30;20038;-81
2021/08/23 15:23:17;;;;;;;4.45;1.20;;;26.10;56.50;;;;;;4804769;29;20172;-78
2021/08/23 15:25:44;;;;;;;2.50;1.30;;;26.20;56.60;;;;;;4800039;30;20373;-78
2021/08/23 15:28:10;;;;;;;2.67;1.30;;;26.20;56.70;;;;;;4796810;30;20098;-79
2021/08/23 15:30:36;;;;;;;2.63;1.15;;;26.20;56.80;;;;;;4767253;30;20039;-78
2021/08/23 15:33:04;;;;;;;1.33;1.00;;;26.10;56.40;;;;;;4781906;30;20081;-78
2021/08/23 15:35:31;;;;;;;1.63;1.00;;;25.90;55.80;;;;;;4792007;30;20046;-78